Terminal Aerodrome Forecast
Issued by NWS La Crosse, WI

Home | Current Version | Previous Version | Text Only | Print | Product List | Glossary On
Versions: 1 2 3 4 5 6 7 8 9 10 11 12 13 14
000
FTUS43 KARX 252337
TAFLSE
TAF
KLSE 252337Z 2600/2624 31004KT P6SM SKC
     FM261700 26009KT P6SM SCT080
     FM262000 30012G20KT P6SM BKN060
     FM262300 33012KT P6SM BKN040=

USA.gov is the U.S. government's official web portal to all federal, state and local government web resources and services.